Ellwood City, Pennsylvania
Current Conditions -  °F | °C
As of 8:47 PM on Thursday 18 Dec 2014 (Local Time) from KBVI Reporting Station
Overcast Overcast  
Wind Chill: -5°   Ceiling: 1400
Heat Index: -2°   Visibility: 10mi
Dew Point: -5°   Wind: 5mph
Humidity: 80%   Direction: 250°WSW
Pressure: 30.13"   Gusts: NA
Location:  40.86°N, 80.29°W
Report Text: KBVI 190147Z 25004KT 10SM OVC014 M02/M05 A3013 RMK LAST
Loading
Personal Weather Stations






























Interactive Weather Map New forecast layout! Learn more

10-Day Weather Forecast

Advertisements
Track Severe Weather on mobile